Time;durP1;ratioP1;P1;durP2;ratioP2;P2;SDS_P1;SDS_P2;PMS_P1;PMS_P2;Temp;Humidity;BMP_temperature;BMP_pressure;BME280_temperature;BME280_humidity;BME280_pressure;Samples;Min_cycle;Max_cycle;Signal;HPM_P1;HPM_P2
2022/08/20 00:00:16;;;;;;;14.32;2.55;;;17.60;99.90;;;;;;5051359;28;20268;-50
2022/08/20 00:02:48;;;;;;;18.38;2.80;;;17.60;99.90;;;;;;5049570;28;20215;-50
2022/08/20 00:05:15;;;;;;;18.42;2.40;;;17.60;99.90;;;;;;5050939;28;20222;-51
2022/08/20 00:07:40;;;;;;;12.52;2.33;;;17.50;99.90;;;;;;5050896;28;20158;-51
2022/08/20 00:10:07;;;;;;;19.70;2.63;;;17.50;99.90;;;;;;5050838;28;20581;-51
2022/08/20 00:12:35;;;;;;;16.00;2.22;;;17.50;99.90;;;;;;5050835;28;20180;-51
2022/08/20 00:15:01;;;;;;;25.77;3.08;;;17.40;99.90;;;;;;5050707;28;20189;-50
2022/08/20 00:17:32;;;;;;;18.38;2.70;;;17.30;99.90;;;;;;5050888;28;20180;-50
2022/08/20 00:19:58;;;;;;;20.35;2.95;;;17.40;99.90;;;;;;5050632;28;20205;-50
2022/08/20 00:22:25;;;;;;;14.10;2.60;;;17.30;99.90;;;;;;5050605;28;20169;-50
2022/08/20 00:24:51;;;;;;;22.02;2.63;;;17.20;99.90;;;;;;5050601;28;20188;-51
2022/08/20 00:27:16;;;;;;;13.52;2.38;;;17.30;99.90;;;;;;5050684;28;20531;-50
2022/08/20 00:29:42;;;;;;;16.50;2.80;;;17.30;99.90;;;;;;5050725;28;20213;-50
2022/08/20 00:32:07;;;;;;;15.27;2.75;;;17.10;99.90;;;;;;5050453;28;20193;-51
2022/08/20 00:34:33;;;;;;;17.00;2.65;;;16.80;99.90;;;;;;5050584;28;20170;-51
2022/08/20 00:36:59;;;;;;;20.02;2.72;;;16.60;99.90;;;;;;5050687;28;20177;-51
2022/08/20 00:39:24;;;;;;;14.82;2.30;;;16.60;99.90;;;;;;5050525;28;20192;-50
2022/08/20 00:41:50;;;;;;;16.55;2.67;;;16.50;99.90;;;;;;5050841;28;20172;-51
2022/08/20 00:44:20;;;;;;;23.63;3.15;;;16.60;99.90;;;;;;5050362;28;20320;-50
2022/08/20 00:46:47;;;;;;;16.35;2.45;;;16.60;99.90;;;;;;5050481;28;20180;-50
2022/08/20 00:49:21;;;;;;;16.45;2.75;;;16.60;99.90;;;;;;5050719;28;20318;-51
2022/08/20 00:51:52;;;;;;;18.17;3.20;;;16.60;99.90;;;;;;5050574;28;20175;-51
2022/08/20 00:54:33;;;;;;;14.73;2.45;;;16.60;99.90;;;;;;5054561;28;20180;-50
2022/08/20 00:57:04;;;;;;;12.95;2.58;;;16.60;99.90;;;;;;5054322;28;20174;-50
2022/08/20 00:59:33;;;;;;;18.02;2.63;;;16.70;99.90;;;;;;5054255;28;20161;-51
2022/08/20 01:02:01;;;;;;;16.02;2.78;;;16.70;99.90;;;;;;5054266;28;20235;-51
2022/08/20 01:04:28;;;;;;;22.92;2.85;;;16.70;99.90;;;;;;5053957;28;20231;-50
2022/08/20 01:06:54;;;;;;;16.98;2.33;;;16.70;99.90;;;;;;5054283;28;20185;-51
2022/08/20 01:09:21;;;;;;;18.70;2.58;;;16.80;99.90;;;;;;5054186;28;20521;-50
2022/08/20 01:11:47;;;;;;;15.65;2.78;;;16.90;99.90;;;;;;5053904;28;20537;-50
2022/08/20 01:17:01;;;;;;;20.75;2.67;;;17.00;99.90;;;;;;5053866;28;20635;-51
2022/08/20 01:19:32;;;;;;;19.15;2.45;;;16.90;99.90;;;;;;5053831;28;20267;-51
2022/08/20 01:21:59;;;;;;;16.80;2.13;;;16.90;99.90;;;;;;5053815;28;20256;-51
2022/08/20 01:24:37;;;;;;;16.77;2.38;;;16.90;99.90;;;;;;5053614;28;20308;-49
2022/08/20 01:27:05;;;;;;;13.57;2.42;;;16.90;99.90;;;;;;5053627;28;20169;-50
2022/08/20 01:29:38;;;;;;;12.32;2.05;;;16.90;99.90;;;;;;5053666;28;20177;-50
2022/08/20 01:32:05;;;;;;;17.45;2.78;;;16.90;99.90;;;;;;5053729;28;20256;-50
2022/08/20 01:34:32;;;;;;;18.05;2.13;;;17.00;99.90;;;;;;5053624;28;20161;-50
2022/08/20 01:36:58;;;;;;;12.38;2.00;;;17.10;99.90;;;;;;5053654;28;20185;-50
2022/08/20 01:39:28;;;;;;;14.85;2.35;;;17.00;99.90;;;;;;5053533;28;20636;-50
2022/08/20 01:42:02;;;;;;;17.73;2.50;;;17.00;99.90;;;;;;5053315;28;20169;-50
2022/08/20 01:44:28;;;;;;;15.05;2.42;;;16.90;99.90;;;;;;5053083;28;20687;-49
2022/08/20 01:46:54;;;;;;;13.35;2.08;;;17.00;99.90;;;;;;5053306;28;20252;-49
2022/08/20 01:49:22;;;;;;;14.07;2.40;;;17.00;99.90;;;;;;5053301;28;20256;-50
2022/08/20 01:51:49;;;;;;;13.40;2.33;;;17.00;99.90;;;;;;5053208;28;20207;-49
2022/08/20 01:54:15;;;;;;;20.50;2.85;;;17.10;99.90;;;;;;5053131;28;20260;-49
2022/08/20 01:56:59;;;;;;;15.05;2.53;;;17.00;99.90;;;;;;5053047;28;20165;-50
2022/08/20 01:59:24;;;;;;;16.15;2.10;;;16.90;99.90;;;;;;5053220;28;20177;-50
2022/08/20 02:01:51;;;;;;;13.60;2.50;;;16.80;99.90;;;;;;5053014;28;20628;-49
2022/08/20 02:04:17;;;;;;;12.25;2.00;;;16.80;99.90;;;;;;5051621;28;20217;-49
2022/08/20 02:06:49;;;;;;;23.20;3.30;;;16.70;99.90;;;;;;5053181;28;20724;-50
2022/08/20 02:09:15;;;;;;;16.10;2.40;;;16.70;99.90;;;;;;5052849;28;20514;-50
2022/08/20 02:11:40;;;;;;;16.17;2.35;;;16.60;99.90;;;;;;5052861;28;20252;-50
2022/08/20 02:14:09;;;;;;;16.63;2.05;;;16.60;99.90;;;;;;5052838;28;20180;-50
2022/08/20 02:16:38;;;;;;;14.02;2.55;;;16.60;99.90;;;;;;5052726;28;20205;-50
2022/08/20 02:19:18;;;;;;;9.60;2.10;;;16.60;99.90;;;;;;5053301;28;20165;-50
2022/08/20 02:21:49;;;;;;;11.80;2.08;;;16.50;99.90;;;;;;5052752;28;20358;-50
2022/08/20 02:24:15;;;;;;;17.52;2.33;;;16.60;99.90;;;;;;5052587;28;20216;-50
2022/08/20 02:26:42;;;;;;;12.73;2.58;;;16.60;99.90;;;;;;5052573;28;20667;-50
2022/08/20 02:29:10;;;;;;;15.38;2.60;;;16.50;99.90;;;;;;5053017;28;20166;-50
2022/08/20 02:31:38;;;;;;;16.48;2.83;;;16.50;99.90;;;;;;5052478;28;20184;-50
2022/08/20 02:34:07;;;;;;;19.42;2.33;;;16.50;99.90;;;;;;5052275;28;20279;-50
2022/08/20 02:36:33;;;;;;;16.67;2.45;;;16.50;99.90;;;;;;5052532;28;20169;-49
2022/08/20 02:38:58;;;;;;;21.38;2.60;;;16.50;99.90;;;;;;5052501;28;20173;-49
2022/08/20 02:41:24;;;;;;;14.95;2.53;;;16.40;99.90;;;;;;5052446;28;20177;-49
2022/08/20 02:43:50;;;;;;;14.60;2.00;;;16.40;99.90;;;;;;5052004;28;20695;-49
2022/08/20 02:46:19;;;;;;;14.02;2.40;;;16.40;99.90;;;;;;5052116;28;20276;-50
2022/08/20 02:48:45;;;;;;;11.38;2.30;;;16.40;99.90;;;;;;5052100;28;20197;-49
2022/08/20 02:51:11;;;;;;;12.13;1.98;;;16.30;99.90;;;;;;5052097;28;20200;-50
2022/08/20 02:53:40;;;;;;;12.75;2.00;;;16.30;99.90;;;;;;5052031;28;20218;-49
2022/08/20 02:56:06;;;;;;;13.70;2.47;;;16.30;99.90;;;;;;5051985;28;20177;-49
2022/08/20 02:58:34;;;;;;;14.85;2.95;;;16.30;99.90;;;;;;5052021;28;20184;-49
2022/08/20 03:01:00;;;;;;;16.58;2.55;;;16.30;99.90;;;;;;5051868;28;20238;-50
2022/08/20 03:03:26;;;;;;;16.42;2.33;;;16.30;99.90;;;;;;5051936;28;20209;-50
2022/08/20 03:05:55;;;;;;;17.63;2.55;;;16.30;99.90;;;;;;5051861;28;20173;-50
2022/08/20 03:08:22;;;;;;;17.50;2.53;;;16.30;99.90;;;;;;5051886;28;20648;-50
2022/08/20 03:10:49;;;;;;;12.40;2.08;;;16.50;99.90;;;;;;5051825;28;20182;-50
2022/08/20 03:13:16;;;;;;;13.57;2.42;;;16.50;99.90;;;;;;5051747;28;20172;-50
2022/08/20 03:15:52;;;;;;;20.63;2.90;;;16.40;99.90;;;;;;5051212;28;20302;-50
2022/08/20 03:18:19;;;;;;;17.92;2.42;;;16.40;99.90;;;;;;5051881;28;20196;-51
2022/08/20 03:20:45;;;;;;;16.75;2.42;;;16.50;99.90;;;;;;5051515;28;20161;-51
2022/08/20 03:23:11;;;;;;;11.50;2.20;;;16.40;99.90;;;;;;5051518;28;20216;-50
2022/08/20 03:25:37;;;;;;;10.35;2.22;;;16.40;99.90;;;;;;5051593;28;20173;-50
2022/08/20 03:28:03;;;;;;;17.70;2.40;;;16.50;99.90;;;;;;5051362;28;20647;-50
2022/08/20 03:30:30;;;;;;;15.45;3.08;;;16.60;99.90;;;;;;5051201;28;20169;-50
2022/08/20 03:32:56;;;;;;;14.23;2.53;;;16.50;99.90;;;;;;5051287;28;20201;-50
2022/08/20 03:35:23;;;;;;;18.77;2.72;;;16.60;99.90;;;;;;5051339;28;20201;-50
2022/08/20 03:37:49;;;;;;;10.50;2.50;;;16.60;99.90;;;;;;5051443;28;20180;-50
2022/08/20 03:40:22;;;;;;;11.95;2.53;;;16.60;99.90;;;;;;5051289;28;20558;-50
2022/08/20 03:42:48;;;;;;;14.50;2.20;;;16.50;99.90;;;;;;5051028;28;20203;-51
2022/08/20 03:45:14;;;;;;;18.77;3.10;;;16.60;99.90;;;;;;5051528;28;20177;-50
2022/08/20 03:47:40;;;;;;;12.65;2.53;;;16.50;99.90;;;;;;5051099;28;20219;-50
2022/08/20 03:50:08;;;;;;;24.88;3.13;;;16.50;99.90;;;;;;5051061;28;20173;-50
2022/08/20 03:52:34;;;;;;;19.48;3.05;;;16.50;99.90;;;;;;5051003;28;20165;-50
2022/08/20 03:55:00;;;;;;;15.50;2.58;;;16.30;99.90;;;;;;5050980;28;20685;-50
2022/08/20 03:57:26;;;;;;;22.17;3.05;;;16.30;99.90;;;;;;5050908;28;20280;-50
2022/08/20 03:59:52;;;;;;;13.45;2.38;;;16.30;99.90;;;;;;5051044;28;20211;-50
2022/08/20 04:02:17;;;;;;;15.43;2.53;;;16.40;99.90;;;;;;5051238;28;20528;-50
2022/08/20 04:04:44;;;;;;;15.07;2.30;;;16.40;99.90;;;;;;5050928;28;20763;-50
2022/08/20 04:07:12;;;;;;;20.60;2.90;;;16.40;99.90;;;;;;5051001;28;20226;-50
2022/08/20 04:09:38;;;;;;;15.15;2.40;;;16.50;99.90;;;;;;5050761;28;20165;-50
2022/08/20 04:12:05;;;;;;;11.50;2.33;;;16.60;99.90;;;;;;5050750;28;20510;-50
2022/08/20 04:14:32;;;;;;;14.85;2.60;;;16.60;99.90;;;;;;5050883;28;20176;-51
2022/08/20 04:16:58;;;;;;;16.63;2.60;;;16.60;99.90;;;;;;5050837;28;20187;-51
2022/08/20 04:19:24;;;;;;;18.45;2.70;;;16.60;99.90;;;;;;5050773;28;20256;-50
2022/08/20 04:21:49;;;;;;;17.77;2.63;;;16.60;99.90;;;;;;5050687;28;20177;-51
2022/08/20 04:24:15;;;;;;;20.20;2.97;;;16.50;99.90;;;;;;5050787;28;20237;-51
2022/08/20 04:26:41;;;;;;;16.35;2.60;;;16.20;99.90;;;;;;5050906;28;20636;-51
2022/08/20 04:29:07;;;;;;;18.42;2.58;;;16.10;99.90;;;;;;5054927;28;20639;-50
2022/08/20 04:31:33;;;;;;;18.35;3.25;;;15.80;99.90;;;;;;5055108;28;20248;-51
2022/08/20 04:34:06;;;;;;;18.13;3.05;;;15.70;99.90;;;;;;5054937;28;20177;-51
2022/08/20 04:36:33;;;;;;;17.17;3.30;;;15.70;99.90;;;;;;5054706;28;20181;-50
2022/08/20 04:38:59;;;;;;;19.30;3.65;;;15.70;99.90;;;;;;5054543;28;20235;-50
2022/08/20 04:41:25;;;;;;;21.67;3.58;;;15.70;99.90;;;;;;5054621;28;20165;-51
2022/08/20 04:43:52;;;;;;;16.70;3.20;;;15.80;99.90;;;;;;5054424;28;20232;-50
2022/08/20 04:46:19;;;;;;;19.63;3.70;;;15.80;99.90;;;;;;5054492;28;20343;-50
2022/08/20 04:48:45;;;;;;;21.20;3.05;;;15.80;99.90;;;;;;5054609;28;20177;-50
2022/08/20 04:51:13;;;;;;;15.20;2.95;;;15.70;99.90;;;;;;5054379;28;20531;-50
2022/08/20 04:53:40;;;;;;;18.20;3.10;;;15.70;99.90;;;;;;5054312;28;20222;-50
2022/08/20 04:56:06;;;;;;;20.70;3.42;;;15.90;99.90;;;;;;5054451;28;20180;-50
2022/08/20 04:58:37;;;;;;;20.52;3.08;;;16.00;99.90;;;;;;5054361;28;20169;-51
2022/08/20 05:01:07;;;;;;;18.50;2.97;;;16.00;99.90;;;;;;5054347;28;20660;-50
2022/08/20 05:03:34;;;;;;;14.45;2.78;;;15.90;99.90;;;;;;5054112;28;20204;-50
2022/08/20 05:06:03;;;;;;;21.92;2.92;;;15.90;99.90;;;;;;5054100;28;20173;-50
2022/08/20 05:08:28;;;;;;;16.08;3.28;;;16.00;99.90;;;;;;5054136;28;20165;-50
2022/08/20 05:10:54;;;;;;;16.80;2.72;;;16.10;99.90;;;;;;5054253;28;20165;-50
2022/08/20 05:13:20;;;;;;;18.67;2.80;;;16.10;99.90;;;;;;5054091;28;20174;-50
2022/08/20 05:15:47;;;;;;;15.43;2.65;;;16.00;99.90;;;;;;5053978;28;20165;-50
2022/08/20 05:18:17;;;;;;;13.50;2.50;;;16.00;99.90;;;;;;5053970;28;20184;-50
2022/08/20 05:20:43;;;;;;;17.95;2.58;;;15.90;99.90;;;;;;5053814;28;20272;-50
2022/08/20 05:23:10;;;;;;;20.13;3.05;;;15.90;99.90;;;;;;5053859;28;20300;-50
2022/08/20 05:25:37;;;;;;;22.23;3.10;;;15.90;99.90;;;;;;5054178;28;20169;-50
2022/08/20 05:28:31;;;;;;;23.33;2.97;;;15.90;99.90;;;;;;5052495;28;20209;-50
2022/08/20 05:30:59;;;;;;;17.48;2.97;;;15.90;99.90;;;;;;5050545;28;20191;-50
2022/08/20 05:33:25;;;;;;;19.88;3.15;;;15.90;99.90;;;;;;5053694;28;20192;-50
2022/08/20 05:35:52;;;;;;;18.20;2.60;;;15.90;99.90;;;;;;5053741;28;20172;-49
2022/08/20 05:38:23;;;;;;;18.67;3.10;;;15.80;99.90;;;;;;5053275;28;20161;-50
2022/08/20 05:40:49;;;;;;;17.45;3.05;;;15.80;99.90;;;;;;5053545;28;20272;-50
2022/08/20 05:43:16;;;;;;;16.70;2.55;;;15.80;99.90;;;;;;5053384;28;20244;-50
2022/08/20 05:45:43;;;;;;;14.45;2.63;;;15.90;99.90;;;;;;5053415;28;20177;-51
2022/08/20 05:48:12;;;;;;;20.08;3.28;;;15.90;99.90;;;;;;5053473;28;20170;-51
2022/08/20 05:50:38;;;;;;;17.35;2.90;;;15.90;99.90;;;;;;5053597;28;20169;-51
2022/08/20 05:53:05;;;;;;;17.17;2.63;;;15.90;99.90;;;;;;5053490;28;20184;-51
2022/08/20 05:55:30;;;;;;;14.93;2.72;;;15.90;99.90;;;;;;5053285;28;20528;-51
2022/08/20 05:57:58;;;;;;;15.57;2.92;;;16.00;99.90;;;;;;5053258;28;20177;-50
2022/08/20 06:00:25;;;;;;;21.98;2.92;;;16.00;99.90;;;;;;5053202;28;20656;-50
2022/08/20 06:05:35;;;;;;;18.60;2.78;;;15.90;99.90;;;;;;5053360;28;20187;-51
2022/08/20 06:08:04;;;;;;;15.88;2.30;;;15.90;99.90;;;;;;5053117;28;20174;-51
2022/08/20 06:10:29;;;;;;;19.45;2.42;;;15.90;99.90;;;;;;5052964;28;20184;-50
2022/08/20 06:12:55;;;;;;;14.43;2.67;;;15.90;99.90;;;;;;5052905;28;20173;-50
2022/08/20 06:15:21;;;;;;;21.35;3.38;;;15.90;99.90;;;;;;5052995;28;20524;-50
2022/08/20 06:17:46;;;;;;;18.10;3.17;;;16.00;99.90;;;;;;5052900;28;20686;-50
2022/08/20 06:20:12;;;;;;;19.13;3.28;;;16.10;99.90;;;;;;5052857;28;20169;-50
2022/08/20 06:22:38;;;;;;;31.05;3.72;;;16.10;99.90;;;;;;5052648;28;20686;-50
2022/08/20 06:25:05;;;;;;;22.10;3.25;;;16.10;99.90;;;;;;5052626;28;20559;-49
2022/08/20 06:27:31;;;;;;;15.73;2.80;;;16.10;99.90;;;;;;5052604;28;20282;-49
2022/08/20 06:29:56;;;;;;;14.63;2.22;;;16.10;99.90;;;;;;5052825;28;20222;-50
2022/08/20 06:32:23;;;;;;;15.90;2.83;;;16.20;99.90;;;;;;5052611;28;20632;-50
2022/08/20 06:34:50;;;;;;;20.10;3.50;;;16.30;99.90;;;;;;5052521;28;20186;-51
2022/08/20 06:37:20;;;;;;;16.67;2.90;;;16.40;99.90;;;;;;5052368;28;20165;-50
2022/08/20 06:39:45;;;;;;;18.83;3.03;;;16.50;99.90;;;;;;5052374;28;20168;-49
2022/08/20 06:42:12;;;;;;;17.60;2.50;;;16.50;99.90;;;;;;5052566;28;20728;-50
2022/08/20 06:44:37;;;;;;;16.17;3.28;;;16.60;99.90;;;;;;5051899;28;20633;-51
2022/08/20 06:47:04;;;;;;;15.25;2.65;;;16.60;99.90;;;;;;5052266;28;20226;-50
2022/08/20 06:49:33;;;;;;;17.98;3.20;;;16.70;99.90;;;;;;5051790;28;20178;-50
2022/08/20 06:51:59;;;;;;;16.60;2.97;;;16.70;99.90;;;;;;5052080;28;20636;-50
2022/08/20 06:54:24;;;;;;;15.13;2.75;;;16.70;99.90;;;;;;5052059;28;20174;-51
2022/08/20 06:56:52;;;;;;;19.05;3.03;;;16.80;99.90;;;;;;5052028;28;20161;-50
2022/08/20 06:59:19;;;;;;;18.60;2.70;;;16.80;99.90;;;;;;5051906;28;20185;-50
2022/08/20 07:01:45;;;;;;;17.15;2.95;;;16.90;99.90;;;;;;5051952;28;20169;-50
2022/08/20 07:04:10;;;;;;;18.95;2.83;;;16.90;99.90;;;;;;5051855;28;20208;-50
2022/08/20 07:06:36;;;;;;;16.05;2.28;;;17.00;99.90;;;;;;5051967;28;20165;-50
2022/08/20 07:09:02;;;;;;;14.77;2.10;;;17.10;99.90;;;;;;5051868;28;20570;-50
2022/08/20 07:11:28;;;;;;;9.98;2.28;;;17.10;99.90;;;;;;5051752;28;20498;-50
2022/08/20 07:13:55;;;;;;;16.30;2.58;;;17.20;99.90;;;;;;5051874;28;20177;-51
2022/08/20 07:16:21;;;;;;;18.33;2.10;;;17.20;99.90;;;;;;5051776;28;20222;-51
2022/08/20 07:18:47;;;;;;;11.90;2.60;;;17.30;99.90;;;;;;5051712;28;20165;-51
2022/08/20 07:21:12;;;;;;;13.88;2.35;;;17.30;99.90;;;;;;5051606;28;20165;-51
2022/08/20 07:23:38;;;;;;;21.52;2.47;;;17.30;99.90;;;;;;5051505;28;20714;-50
2022/08/20 07:26:04;;;;;;;16.73;2.47;;;17.40;99.90;;;;;;5051521;28;20632;-50
2022/08/20 07:28:31;;;;;;;16.17;2.70;;;17.50;99.90;;;;;;5051541;28;20636;-51
2022/08/20 07:33:42;;;;;;;14.57;2.08;;;17.50;99.90;;;;;;5051632;28;20176;-50
2022/08/20 07:36:09;;;;;;;15.18;2.85;;;17.60;99.90;;;;;;5051130;28;20181;-50
2022/08/20 07:38:36;;;;;;;17.75;2.33;;;17.60;99.90;;;;;;5051319;28;20173;-51
2022/08/20 07:41:06;;;;;;;16.67;3.10;;;17.80;99.90;;;;;;5051213;28;20607;-51
2022/08/20 07:43:32;;;;;;;21.67;2.75;;;17.80;99.90;;;;;;5050951;28;20351;-50
2022/08/20 07:46:00;;;;;;;14.50;2.33;;;17.80;99.90;;;;;;5051162;28;20173;-50
2022/08/20 07:48:28;;;;;;;13.23;2.50;;;17.80;99.90;;;;;;5051077;28;20656;-51
2022/08/20 07:50:55;;;;;;;15.63;2.88;;;17.80;99.90;;;;;;5051133;28;20173;-51
2022/08/20 07:53:21;;;;;;;15.30;2.58;;;18.00;99.90;;;;;;5051018;28;20244;-51
2022/08/20 07:55:47;;;;;;;15.88;2.97;;;18.00;99.90;;;;;;5050982;28;20173;-49
2022/08/20 07:58:16;;;;;;;14.30;2.50;;;18.10;99.90;;;;;;5050988;28;20172;-49
2022/08/20 08:00:42;;;;;;;16.98;3.08;;;18.30;99.90;;;;;;5050811;28;20177;-49
2022/08/20 08:03:09;;;;;;;15.80;2.40;;;18.40;99.90;;;;;;5050874;28;20258;-50
2022/08/20 08:05:39;;;;;;;17.50;2.53;;;18.40;99.90;;;;;;5050815;28;20192;-52
2022/08/20 08:08:09;;;;;;;16.75;3.30;;;18.40;99.90;;;;;;5051063;28;20579;-49
2022/08/20 08:10:36;;;;;;;16.48;2.70;;;18.70;99.90;;;;;;5050901;28;20178;-49
2022/08/20 08:13:05;;;;;;;17.10;2.85;;;18.80;99.90;;;;;;5050916;28;20264;-52
2022/08/20 08:15:33;;;;;;;19.38;2.90;;;18.70;99.90;;;;;;5050725;28;20205;-50
2022/08/20 08:18:12;;;;;;;20.02;3.28;;;18.80;99.90;;;;;;5050943;28;20258;-49
2022/08/20 08:20:41;;;;;;;17.25;3.13;;;18.60;99.90;;;;;;5050740;28;20624;-50
2022/08/20 08:23:10;;;;;;;12.80;2.90;;;18.50;99.90;;;;;;5050717;28;20299;-51
2022/08/20 08:25:37;;;;;;;15.13;2.72;;;18.50;99.90;;;;;;5050805;28;20184;-51
2022/08/20 08:28:04;;;;;;;14.55;3.08;;;18.70;99.90;;;;;;5050604;28;20173;-51
2022/08/20 08:30:30;;;;;;;18.27;3.30;;;19.80;99.90;;;;;;5050889;28;20178;-52
2022/08/20 08:35:44;;;;;;;14.07;2.38;;;22.00;99.90;;;;;;5050705;28;20230;-51
2022/08/20 08:38:10;;;;;;;16.73;2.67;;;22.20;99.90;;;;;;5050585;28;20176;-51
2022/08/20 08:40:36;;;;;;;14.27;3.13;;;23.00;99.90;;;;;;5050594;28;20692;-51
2022/08/20 08:43:03;;;;;;;13.63;2.78;;;22.90;99.90;;;;;;5050590;28;20201;-51
2022/08/20 08:45:42;;;;;;;10.27;1.92;;;23.00;99.90;;;;;;5050606;28;20169;-51
2022/08/20 08:48:10;;;;;;;13.30;2.70;;;23.90;99.90;;;;;;5050602;28;20173;-51
2022/08/20 08:50:36;;;;;;;11.02;2.70;;;23.10;99.90;;;;;;5050781;28;20197;-51
2022/08/20 08:53:04;;;;;;;19.20;3.85;;;21.70;99.90;;;;;;5050217;28;20208;-50
2022/08/20 08:55:31;;;;;;;11.73;2.80;;;21.20;99.90;;;;;;5050687;28;20302;-50
2022/08/20 08:58:00;;;;;;;11.50;2.60;;;20.80;99.90;;;;;;5050509;28;20205;-51
2022/08/20 09:00:27;;;;;;;11.88;2.75;;;20.80;99.90;;;;;;5050510;28;20208;-51
2022/08/20 09:02:55;;;;;;;13.20;2.28;;;20.60;99.90;;;;;;5050156;28;20169;-51
2022/08/20 09:05:24;;;;;;;18.23;3.10;;;20.50;99.90;;;;;;5050260;28;20223;-50
2022/08/20 09:07:52;;;;;;;12.70;2.60;;;20.30;99.90;;;;;;5050276;28;20177;-51
2022/08/20 09:10:19;;;;;;;13.68;2.75;;;20.00;99.90;;;;;;5050537;28;20192;-50
2022/08/20 09:12:45;;;;;;;14.40;2.92;;;20.00;99.90;;;;;;5050581;28;20189;-51
2022/08/20 09:15:11;;;;;;;18.05;3.35;;;20.40;99.90;;;;;;5054095;28;20181;-51
2022/08/20 09:17:36;;;;;;;14.32;2.25;;;20.90;99.90;;;;;;5053945;28;20636;-51
2022/08/20 09:20:03;;;;;;;18.60;2.55;;;20.90;99.90;;;;;;5053881;28;20173;-50
2022/08/20 09:22:29;;;;;;;14.32;3.25;;;21.20;99.90;;;;;;5053774;28;20578;-50
2022/08/20 09:24:55;;;;;;;12.38;2.55;;;21.30;99.90;;;;;;5053978;28;20216;-51
2022/08/20 09:27:21;;;;;;;11.00;2.10;;;21.00;99.90;;;;;;5053928;28;20307;-51
2022/08/20 09:29:47;;;;;;;18.35;3.47;;;21.10;99.90;;;;;;5053814;28;20256;-51
2022/08/20 09:32:17;;;;;;;11.73;2.08;;;21.00;99.90;;;;;;5053534;28;20597;-51
2022/08/20 09:34:47;;;;;;;15.65;3.20;;;21.20;99.90;;;;;;5053477;28;20239;-51
2022/08/20 09:37:13;;;;;;;13.30;2.65;;;21.20;99.90;;;;;;5053861;28;20181;-51
2022/08/20 09:39:40;;;;;;;18.25;2.92;;;21.00;99.90;;;;;;5053557;28;20274;-52
2022/08/20 09:42:28;;;;;;;16.42;2.88;;;21.10;99.90;;;;;;5053592;28;20636;-51
2022/08/20 09:44:54;;;;;;;13.95;3.20;;;21.40;99.90;;;;;;5053371;28;20256;-51
2022/08/20 09:47:20;;;;;;;17.13;3.25;;;21.00;99.90;;;;;;5053408;28;20169;-51
2022/08/20 09:49:46;;;;;;;16.48;3.00;;;21.20;99.90;;;;;;5053408;28;20226;-51
2022/08/20 09:52:31;;;;;;;18.08;2.45;;;21.60;99.90;;;;;;5053298;28;20169;-51
2022/08/20 09:55:15;;;;;;;15.38;2.42;;;21.90;99.90;;;;;;5053220;28;20663;-51
2022/08/20 09:57:40;;;;;;;12.23;2.85;;;22.20;99.90;;;;;;5053103;28;20239;-51
2022/08/20 10:00:10;;;;;;;14.77;2.75;;;22.30;99.90;;;;;;5053068;28;20635;-52
2022/08/20 10:02:36;;;;;;;18.35;3.35;;;22.40;99.90;;;;;;5053227;28;20195;-51
2022/08/20 10:05:01;;;;;;;11.43;3.00;;;22.20;99.90;;;;;;5053106;28;20781;-51
2022/08/20 10:07:27;;;;;;;10.45;2.20;;;22.50;99.90;;;;;;5051745;28;20227;-50
2022/08/20 10:09:53;;;;;;;12.90;2.97;;;23.00;99.90;;;;;;5052976;28;20226;-51
2022/08/20 10:12:18;;;;;;;15.32;2.63;;;23.60;99.90;;;;;;5052828;28;20189;-50
2022/08/20 10:14:44;;;;;;;13.38;3.00;;;22.80;99.90;;;;;;5052900;28;20184;-51
2022/08/20 10:17:10;;;;;;;14.82;2.80;;;22.70;99.90;;;;;;5052859;28;20177;-51
2022/08/20 10:19:35;;;;;;;10.65;2.33;;;22.40;99.90;;;;;;5051443;28;20177;-51
2022/08/20 10:22:01;;;;;;;14.27;2.60;;;22.80;99.90;;;;;;5052728;28;20259;-50
2022/08/20 10:24:27;;;;;;;14.90;2.42;;;23.10;99.90;;;;;;5051753;28;20213;-50
2022/08/20 10:26:58;;;;;;;13.02;2.72;;;23.00;99.90;;;;;;5052424;28;20219;-51
2022/08/20 10:29:25;;;;;;;11.90;2.50;;;23.00;99.90;;;;;;5052633;28;20688;-52
2022/08/20 10:31:51;;;;;;;13.98;2.58;;;22.90;99.90;;;;;;5052416;28;20227;-51
2022/08/20 10:34:17;;;;;;;13.85;2.78;;;23.20;99.90;;;;;;5052482;28;20181;-51
2022/08/20 10:36:43;;;;;;;13.15;2.53;;;23.10;99.90;;;;;;5052534;28;20170;-51
2022/08/20 10:39:09;;;;;;;15.35;3.03;;;23.10;99.90;;;;;;5052253;28;20211;-51
2022/08/20 10:41:35;;;;;;;14.23;2.45;;;23.00;99.90;;;;;;5052423;28;20177;-51
2022/08/20 10:44:01;;;;;;;12.13;2.58;;;23.00;99.90;;;;;;5052309;28;20728;-52
2022/08/20 10:46:27;;;;;;;12.07;2.53;;;22.60;99.90;;;;;;5052543;28;20181;-51
2022/08/20 10:48:52;;;;;;;15.02;2.80;;;22.30;99.90;;;;;;5052205;28;20173;-51
2022/08/20 10:51:18;;;;;;;14.10;2.60;;;22.20;99.90;;;;;;5052262;28;20178;-50
2022/08/20 10:53:44;;;;;;;12.00;2.65;;;22.20;99.90;;;;;;5052053;28;20301;-50
2022/08/20 10:56:09;;;;;;;12.73;2.50;;;21.90;99.90;;;;;;5052129;28;20173;-51
2022/08/20 10:58:35;;;;;;;11.25;2.38;;;22.00;99.90;;;;;;5052155;28;20173;-50
2022/08/20 11:01:00;;;;;;;13.35;2.45;;;22.00;99.90;;;;;;5052122;28;20256;-51
2022/08/20 11:03:26;;;;;;;17.48;2.90;;;21.70;99.90;;;;;;5051858;28;20240;-51
2022/08/20 11:05:52;;;;;;;16.38;3.05;;;21.40;99.90;;;;;;5051863;28;20533;-50
2022/08/20 11:08:17;;;;;;;20.63;3.03;;;21.20;99.90;;;;;;5051911;28;20710;-51
2022/08/20 11:10:43;;;;;;;16.52;2.70;;;20.90;99.90;;;;;;5051663;28;20552;-50
2022/08/20 11:13:11;;;;;;;10.40;2.88;;;20.80;99.90;;;;;;5051844;28;20561;-51
2022/08/20 11:15:39;;;;;;;17.35;3.15;;;20.90;99.90;;;;;;5051753;28;20542;-51
2022/08/20 11:18:05;;;;;;;15.30;2.75;;;21.30;99.90;;;;;;5051733;28;20165;-51
2022/08/20 11:20:32;;;;;;;16.38;3.35;;;21.80;99.90;;;;;;5051706;28;20173;-51
2022/08/20 11:22:58;;;;;;;11.98;2.55;;;22.20;99.90;;;;;;5051487;28;20196;-51
2022/08/20 11:25:24;;;;;;;11.45;2.83;;;22.60;99.90;;;;;;5051630;28;20648;-51
2022/08/20 11:27:51;;;;;;;14.68;3.38;;;22.70;99.90;;;;;;5051861;28;20272;-51
2022/08/20 11:30:21;;;;;;;15.55;3.13;;;22.60;99.90;;;;;;5051601;28;20542;-51
2022/08/20 11:32:47;;;;;;;15.95;2.50;;;22.90;99.90;;;;;;5051399;28;20173;-51
2022/08/20 11:35:13;;;;;;;11.02;2.53;;;22.30;99.90;;;;;;5051539;28;20223;-51
2022/08/20 11:37:39;;;;;;;13.23;2.65;;;21.60;99.90;;;;;;5050956;28;20286;-51
2022/08/20 11:40:07;;;;;;;22.48;3.53;;;21.50;99.90;;;;;;5051368;28;20181;-51
2022/08/20 11:42:33;;;;;;;26.88;3.83;;;23.00;99.90;;;;;;5051461;28;20169;-55
2022/08/20 11:44:59;;;;;;;24.67;3.28;;;23.60;99.90;;;;;;5050983;28;20726;-51
2022/08/20 11:47:28;;;;;;;12.32;3.00;;;23.00;99.90;;;;;;5051279;28;20173;-51
2022/08/20 11:50:12;;;;;;;13.05;2.50;;;22.90;99.90;;;;;;5051273;28;20184;-52
2022/08/20 11:52:38;;;;;;;12.60;2.90;;;23.60;99.90;;;;;;5049881;28;20533;-52
2022/08/20 11:55:06;;;;;;;10.65;3.08;;;25.50;99.90;;;;;;5051125;28;20248;-52
2022/08/20 11:57:34;;;;;;;11.23;2.53;;;26.90;99.90;;;;;;5051093;28;20256;-52
2022/08/20 12:00:04;;;;;;;11.10;2.65;;;26.80;99.90;;;;;;5051151;28;20717;-52
2022/08/20 12:02:30;;;;;;;8.38;2.13;;;26.60;99.90;;;;;;5051145;28;20640;-52
2022/08/20 12:04:55;;;;;;;9.82;2.50;;;27.10;99.90;;;;;;5050979;28;20249;-52
2022/08/20 12:07:23;;;;;;;9.00;2.13;;;28.80;99.90;;;;;;5050970;28;20310;-52
2022/08/20 12:09:49;;;;;;;12.68;2.70;;;29.50;99.90;;;;;;5051270;28;20173;-52
2022/08/20 12:12:15;;;;;;;10.15;2.20;;;28.70;99.90;;;;;;5050898;28;20510;-52
2022/08/20 12:14:41;;;;;;;11.68;2.85;;;29.70;99.90;;;;;;5050854;28;20165;-51
2022/08/20 12:17:13;;;;;;;16.23;2.70;;;30.50;99.90;;;;;;5050905;28;20658;-52
2022/08/20 12:19:41;;;;;;;11.73;2.72;;;29.10;99.90;;;;;;5050751;28;20200;-51
2022/08/20 12:22:08;;;;;;;13.20;2.65;;;28.70;99.90;;;;;;5050830;28;20173;-53
2022/08/20 12:24:34;;;;;;;8.60;2.47;;;28.80;99.90;;;;;;5050697;28;20266;-52
2022/08/20 12:27:13;;;;;;;10.20;2.60;;;28.90;99.90;;;;;;5050725;28;20169;-52
2022/08/20 12:29:40;;;;;;;12.15;2.35;;;29.40;99.90;;;;;;5050693;28;20165;-52
2022/08/20 12:32:07;;;;;;;12.38;2.55;;;29.80;99.90;;;;;;5050709;28;20177;-52
2022/08/20 12:34:38;;;;;;;8.02;2.38;;;29.90;99.90;;;;;;5050821;28;20177;-52
2022/08/20 12:37:20;;;;;;;11.27;2.50;;;28.90;99.90;;;;;;5050631;28;20264;-53
2022/08/20 12:39:48;;;;;;;13.32;2.70;;;29.00;99.90;;;;;;5050464;28;20177;-52
2022/08/20 12:42:15;;;;;;;8.57;2.53;;;28.80;99.90;;;;;;5050523;28;20192;-52
2022/08/20 12:44:42;;;;;;;7.75;2.50;;;29.80;99.90;;;;;;5050419;28;20232;-52
2022/08/20 12:47:10;;;;;;;11.00;2.50;;;29.90;99.90;;;;;;5050536;28;20264;-52
2022/08/20 12:49:37;;;;;;;10.20;2.58;;;30.30;99.90;;;;;;5053692;28;20177;-52